createdAt,value
2022-08-05T00:00:00.326Z,56.20
2022-08-05T00:02:28.746Z,54.80
2022-08-05T00:04:57.476Z,56.40
2022-08-05T00:07:58.681Z,58.40
2022-08-05T00:10:14.640Z,58.90
2022-08-05T00:12:55.922Z,59.30
2022-08-05T00:15:55.431Z,58.80
2022-08-05T00:18:21.834Z,59.50
2022-08-05T00:20:50.787Z,58.40
2022-08-05T00:23:44.510Z,59.10
2022-08-05T00:26:08.581Z,59.70
2022-08-05T00:28:37.142Z,58.70
2022-08-05T00:31:07.566Z,57.70
2022-08-05T00:34:55.425Z,59.30
2022-08-05T00:37:09.673Z,59.50
2022-08-05T00:39:13.686Z,60.20
2022-08-05T00:41:55.243Z,57.90
2022-08-05T00:44:30.698Z,59.60
2022-08-05T00:47:02.232Z,59.50
2022-08-05T00:49:32.715Z,60.40
2022-08-05T00:52:00.895Z,58.70
2022-08-05T00:54:30.202Z,57.00
2022-08-05T00:56:59.530Z,56.70
2022-08-05T00:59:27.370Z,57.50
2022-08-05T01:02:10.046Z,56.00
2022-08-05T01:04:42.005Z,57.00
2022-08-05T01:07:13.551Z,55.90
2022-08-05T01:09:42.024Z,55.20
2022-08-05T01:12:18.608Z,55.70
2022-08-05T01:15:03.945Z,57.10
2022-08-05T01:17:40.063Z,55.90
2022-08-05T01:20:23.734Z,54.40
2022-08-05T01:23:14.395Z,51.80
2022-08-05T01:25:58.385Z,51.20
2022-08-05T01:28:39.467Z,51.30
2022-08-05T01:31:11.990Z,53.70
2022-08-05T01:33:49.286Z,54.40
2022-08-05T01:36:28.083Z,54.40
2022-08-05T01:39:00.156Z,53.70
2022-08-05T01:41:32.018Z,53.80
2022-08-05T01:44:02.186Z,53.30
2022-08-05T01:46:42.395Z,53.70
2022-08-05T01:49:23.753Z,52.70
2022-08-05T01:51:58.058Z,50.90
2022-08-05T01:54:30.069Z,52.60
2022-08-05T01:58:09.367Z,53.60
2022-08-05T01:59:52.516Z,54.00
2022-08-05T02:02:28.349Z,55.50
2022-08-05T02:05:00.361Z,54.00
2022-08-05T02:07:30.223Z,52.50
2022-08-05T02:09:58.737Z,53.50
2022-08-05T02:12:35.605Z,54.70
2022-08-05T02:15:12.276Z,56.70
2022-08-05T02:18:30.689Z,54.80
2022-08-05T02:20:41.020Z,55.80
2022-08-05T02:23:12.782Z,56.10
2022-08-05T02:25:49.792Z,56.30
2022-08-05T02:28:28.468Z,57.80
2022-08-05T02:31:04.293Z,56.10
2022-08-05T02:33:38.418Z,56.40
2022-08-05T02:36:09.747Z,56.80
2022-08-05T02:38:45.089Z,56.50
2022-08-05T02:41:28.877Z,56.40
2022-08-05T02:44:06.982Z,55.60
2022-08-05T02:47:00.005Z,55.30
2022-08-05T02:49:36.195Z,56.00
2022-08-05T02:52:08.789Z,56.20
2022-08-05T02:54:41.271Z,56.90
2022-08-05T02:58:09.316Z,55.50
2022-08-05T03:00:01.294Z,56.60
2022-08-05T03:02:35.405Z,54.70
2022-08-05T03:05:04.124Z,55.50
2022-08-05T03:07:40.582Z,56.10
2022-08-05T03:10:24.841Z,55.10
2022-08-05T03:12:53.476Z,55.20
2022-08-05T03:15:23.730Z,55.80
2022-08-05T03:17:55.921Z,54.90
2022-08-05T03:20:25.494Z,55.90
2022-08-05T03:22:57.701Z,56.00
2022-08-05T03:25:33.016Z,56.30
2022-08-05T03:28:18.636Z,56.00
2022-08-05T03:30:48.299Z,55.40
2022-08-05T03:33:17.926Z,54.30
2022-08-05T03:35:47.283Z,54.90
2022-08-05T03:38:15.821Z,55.90
2022-08-05T03:40:45.092Z,55.90
2022-08-05T03:44:08.533Z,55.90
2022-08-05T03:46:04.992Z,56.00
2022-08-05T03:48:35.594Z,55.20
2022-08-05T03:52:37.527Z,53.30
2022-08-05T03:55:52.348Z,55.50
2022-08-05T03:56:54.743Z,54.40
2022-08-05T03:59:47.687Z,54.60
2022-08-05T04:02:38.934Z,54.20
2022-08-05T04:05:14.324Z,55.30
2022-08-05T04:07:51.447Z,57.30
2022-08-05T04:10:28.442Z,55.40
2022-08-05T04:13:00.266Z,56.30
2022-08-05T04:15:33.379Z,56.10
2022-08-05T04:18:07.385Z,56.40
2022-08-05T04:20:41.213Z,56.10
2022-08-05T04:23:12.234Z,56.40
2022-08-05T04:26:00.379Z,56.60
2022-08-05T04:28:31.710Z,56.20
2022-08-05T04:31:01.078Z,56.30
2022-08-05T04:34:19.158Z,56.20
2022-08-05T04:36:45.711Z,56.20
2022-08-05T04:39:07.155Z,54.70
2022-08-05T04:41:36.653Z,55.50
2022-08-05T04:44:09.425Z,56.10
2022-08-05T04:46:38.151Z,55.50
2022-08-05T04:49:06.146Z,55.00
2022-08-05T04:51:41.669Z,55.60
2022-08-05T04:54:10.538Z,54.50
2022-08-05T04:56:40.228Z,54.30
2022-08-05T04:59:22.177Z,55.80
2022-08-05T05:02:35.153Z,57.60
2022-08-05T05:04:43.950Z,58.60
2022-08-05T05:07:17.356Z,58.70
2022-08-05T05:09:45.527Z,58.90
2022-08-05T05:12:13.489Z,58.90
2022-08-05T05:14:49.259Z,58.70
2022-08-05T05:17:23.259Z,58.30
2022-08-05T05:19:54.797Z,58.70
2022-08-05T05:22:26.562Z,57.80
2022-08-05T05:24:58.974Z,56.00
2022-08-05T05:27:45.090Z,55.00
2022-08-05T05:30:15.560Z,54.10
2022-08-05T05:33:00.155Z,52.80
2022-08-05T05:35:29.117Z,51.60
2022-08-05T05:38:05.543Z,50.90
2022-08-05T05:40:34.399Z,50.40
2022-08-05T05:43:02.433Z,50.40
2022-08-05T05:45:30.206Z,51.20
2022-08-05T05:48:06.502Z,51.90
2022-08-05T05:50:41.312Z,49.80
2022-08-05T05:53:21.099Z,48.30
2022-08-05T05:55:52.060Z,46.80
2022-08-05T05:58:31.380Z,45.70
2022-08-05T06:01:12.263Z,46.40
2022-08-05T06:04:00.630Z,46.60
2022-08-05T06:06:31.081Z,45.70
2022-08-05T06:09:03.907Z,45.50
2022-08-05T06:11:32.037Z,45.20
2022-08-05T06:14:00.406Z,45.10
2022-08-05T06:16:36.923Z,45.30
2022-08-05T06:19:07.345Z,45.60
2022-08-05T06:21:38.366Z,46.30
2022-08-05T06:24:11.708Z,46.50
2022-08-05T06:26:51.010Z,46.10
2022-08-05T06:29:43.034Z,46.20
2022-08-05T06:32:20.818Z,47.10
2022-08-05T06:34:53.300Z,47.00
2022-08-05T06:37:39.439Z,47.40
2022-08-05T06:40:12.416Z,47.70
2022-08-05T06:42:41.722Z,47.70
2022-08-05T06:45:10.345Z,47.50
2022-08-05T06:48:36.901Z,46.90
2022-08-05T06:50:37.005Z,47.20
2022-08-05T06:53:11.656Z,47.20
2022-08-05T06:55:51.647Z,46.40
2022-08-05T06:58:35.503Z,46.70
2022-08-05T07:01:06.593Z,47.50
2022-08-05T07:03:35.060Z,48.20
2022-08-05T07:06:05.774Z,48.20
2022-08-05T07:08:42.864Z,48.40
2022-08-05T07:11:16.576Z,49.90
2022-08-05T07:14:08.397Z,50.60
2022-08-05T07:18:07.211Z,50.40
2022-08-05T07:20:22.974Z,48.80
2022-08-05T07:22:27.819Z,48.20
2022-08-05T07:24:57.357Z,47.90
2022-08-05T07:27:58.585Z,47.40
2022-08-05T07:30:24.716Z,46.60
2022-08-05T07:32:58.416Z,45.50
2022-08-05T07:35:55.961Z,45.80
2022-08-05T07:38:33.041Z,46.00
2022-08-05T07:41:16.506Z,45.90
2022-08-05T07:43:52.376Z,45.90
2022-08-05T07:46:24.561Z,46.10
2022-08-05T07:49:04.339Z,47.30
2022-08-05T07:51:48.625Z,46.20
2022-08-05T07:54:31.373Z,45.50
2022-08-05T07:57:23.625Z,45.50
2022-08-05T07:59:50.666Z,45.30
2022-08-05T08:02:18.938Z,45.60
2022-08-05T08:04:48.657Z,45.40
2022-08-05T08:07:17.732Z,44.60
2022-08-05T08:09:46.389Z,43.90
2022-08-05T08:12:37.115Z,43.40
2022-08-05T08:15:09.763Z,44.00
2022-08-05T08:17:49.754Z,45.10
2022-08-05T08:20:43.308Z,44.10
2022-08-05T08:24:00.024Z,44.00
2022-08-05T08:26:00.215Z,43.40
2022-08-05T08:28:37.192Z,43.10
2022-08-05T08:31:19.517Z,43.10
2022-08-05T08:33:51.410Z,41.90
2022-08-05T08:36:39.284Z,42.00
2022-08-05T08:39:15.812Z,40.80
2022-08-05T08:41:51.857Z,41.10
2022-08-05T08:45:23.925Z,39.50
2022-08-05T08:48:06.932Z,39.70
2022-08-05T08:50:31.178Z,40.60
2022-08-05T08:53:08.011Z,40.70
2022-08-05T08:56:04.559Z,40.20
2022-08-05T08:58:43.644Z,39.70
2022-08-05T09:01:18.005Z,39.80
2022-08-05T09:03:55.711Z,38.60
2022-08-05T09:06:28.132Z,39.30
2022-08-05T09:08:59.145Z,39.40
2022-08-05T09:11:52.204Z,40.00
2022-08-05T09:14:57.152Z,40.70
2022-08-05T09:17:04.777Z,42.00
2022-08-05T09:20:01.761Z,42.50
2022-08-05T09:22:32.016Z,43.20
2022-08-05T09:25:02.088Z,42.90
2022-08-05T09:28:04.066Z,41.60
2022-08-05T09:30:29.766Z,41.00
2022-08-05T09:33:02.782Z,40.40
2022-08-05T09:35:34.278Z,40.20
2022-08-05T09:38:12.237Z,40.30
2022-08-05T09:40:52.182Z,40.30
2022-08-05T09:43:40.790Z,38.60
2022-08-05T09:46:27.622Z,39.40
2022-08-05T09:49:07.212Z,40.90
2022-08-05T09:51:48.963Z,41.10
2022-08-05T09:54:21.273Z,40.20
2022-08-05T09:57:01.664Z,40.40
2022-08-05T09:59:35.033Z,39.90
2022-08-05T10:02:05.029Z,40.80
2022-08-05T10:04:38.234Z,40.50
2022-08-05T10:07:19.746Z,38.60
2022-08-05T10:10:04.215Z,38.30
2022-08-05T10:12:49.715Z,39.10
2022-08-05T10:15:23.752Z,39.10
2022-08-05T10:18:08.941Z,39.70
2022-08-05T10:20:39.793Z,38.50
2022-08-05T10:23:34.073Z,37.30
2022-08-05T10:26:01.960Z,37.80
2022-08-05T10:28:30.721Z,38.00
2022-08-05T10:32:54.067Z,37.60
2022-08-05T10:33:52.256Z,37.70
2022-08-05T10:36:23.446Z,38.70
2022-08-05T10:39:01.438Z,39.40
2022-08-05T10:41:46.960Z,38.90
2022-08-05T10:44:19.421Z,38.60
2022-08-05T10:46:50.589Z,38.10
2022-08-05T10:49:26.810Z,38.10
2022-08-05T10:52:00.739Z,37.70
2022-08-05T10:55:04.679Z,36.90
2022-08-05T10:57:34.306Z,36.30
2022-08-05T11:00:18.555Z,36.80
2022-08-05T11:03:23.513Z,37.10
2022-08-05T11:06:15.792Z,37.60
2022-08-05T11:09:16.761Z,36.90
2022-08-05T11:11:53.013Z,36.20
2022-08-05T11:14:43.138Z,36.80
2022-08-05T11:17:57.402Z,37.40
2022-08-05T11:20:37.497Z,37.70
2022-08-05T11:23:33.463Z,37.60
2022-08-05T11:26:27.998Z,37.50
2022-08-05T11:29:06.802Z,37.00
2022-08-05T11:31:58.458Z,36.90
2022-08-05T11:34:39.816Z,37.20
2022-08-05T11:38:30.408Z,37.40
2022-08-05T11:40:02.898Z,37.30
2022-08-05T11:42:40.453Z,37.90
2022-08-05T11:45:14.288Z,38.70
2022-08-05T11:47:55.179Z,38.00
2022-08-05T11:50:23.412Z,37.40
2022-08-05T11:52:57.603Z,36.90
2022-08-05T11:55:32.235Z,36.60
2022-08-05T11:58:10.145Z,37.10
2022-08-05T12:00:44.136Z,36.70
2022-08-05T12:03:28.365Z,37.20
2022-08-05T12:06:01.017Z,37.10
2022-08-05T12:08:28.840Z,37.10
2022-08-05T12:11:04.133Z,37.10
2022-08-05T12:13:49.111Z,37.80
2022-08-05T12:16:26.980Z,37.70
2022-08-05T12:18:55.449Z,37.10
2022-08-05T12:21:26.875Z,37.20
2022-08-05T12:24:05.091Z,37.20
2022-08-05T12:26:36.352Z,36.50
2022-08-05T12:29:09.425Z,37.30
2022-08-05T12:31:48.291Z,37.20
2022-08-05T12:34:23.733Z,36.70
2022-08-05T12:36:54.827Z,36.60
2022-08-05T12:39:27.965Z,36.10
2022-08-05T12:42:02.313Z,36.00
2022-08-05T12:44:33.671Z,36.10
2022-08-05T12:47:03.933Z,36.00
2022-08-05T12:50:03.165Z,35.70
2022-08-05T12:52:39.742Z,36.60
2022-08-05T12:55:22.372Z,36.50
2022-08-05T12:58:38.657Z,36.40
2022-08-05T13:02:01.239Z,36.50
2022-08-05T13:03:41.354Z,36.00
2022-08-05T13:06:18.122Z,35.90
2022-08-05T13:08:51.751Z,36.10
2022-08-05T13:12:01.232Z,35.70
2022-08-05T13:14:24.697Z,35.70
2022-08-05T13:17:08.019Z,35.20
2022-08-05T13:19:51.018Z,35.50
2022-08-05T13:22:28.234Z,35.70
2022-08-05T13:25:00.764Z,36.50
2022-08-05T13:27:38.416Z,36.90
2022-08-05T13:30:34.254Z,36.70
2022-08-05T13:32:57.108Z,36.50
2022-08-05T13:35:47.088Z,36.30
2022-08-05T13:38:20.418Z,36.70
2022-08-05T13:40:58.341Z,37.30
2022-08-05T13:43:45.759Z,38.00
2022-08-05T13:46:14.928Z,38.30
2022-08-05T13:48:57.874Z,38.00
2022-08-05T13:51:40.121Z,37.60
2022-08-05T13:54:11.784Z,38.00
2022-08-05T13:56:44.885Z,38.60
2022-08-05T13:59:20.472Z,39.10
2022-08-05T14:01:57.511Z,38.90
2022-08-05T14:04:50.545Z,38.90
2022-08-05T14:07:26.186Z,39.30
2022-08-05T14:10:12.315Z,40.20
2022-08-05T14:12:42.583Z,41.50
2022-08-05T14:16:04.580Z,39.90
2022-08-05T14:18:00.695Z,40.70
2022-08-05T14:20:29.566Z,39.70
2022-08-05T14:22:59.001Z,40.80
2022-08-05T14:25:28.211Z,43.40
2022-08-05T14:27:58.365Z,44.40
2022-08-05T14:30:28.067Z,45.30
2022-08-05T14:32:56.914Z,45.00
2022-08-05T14:35:37.171Z,45.20
2022-08-05T14:38:32.169Z,45.10
2022-08-05T14:41:06.334Z,46.10
2022-08-05T14:43:59.271Z,52.00
2022-08-05T14:46:28.838Z,51.70
2022-08-05T14:49:03.484Z,51.10
2022-08-05T14:51:37.478Z,48.90
2022-08-05T14:54:28.639Z,48.50
2022-08-05T14:56:56.070Z,47.90
2022-08-05T14:59:24.088Z,48.90
2022-08-05T15:01:53.822Z,50.80
2022-08-05T15:04:22.782Z,50.00
2022-08-05T15:06:53.000Z,49.40
2022-08-05T15:09:54.035Z,49.10
2022-08-05T15:12:11.734Z,49.00
2022-08-05T15:14:49.593Z,49.00
2022-08-05T15:17:44.443Z,50.40
2022-08-05T15:20:15.533Z,52.40
2022-08-05T15:22:52.224Z,55.60
2022-08-05T15:25:41.185Z,55.90
2022-08-05T15:28:13.411Z,56.90
2022-08-05T15:30:43.459Z,55.90
2022-08-05T15:33:11.807Z,56.30
2022-08-05T15:35:45.518Z,57.90
2022-08-05T15:38:35.890Z,58.80
2022-08-05T15:41:21.347Z,58.30
2022-08-05T15:43:51.108Z,57.10
2022-08-05T15:46:20.601Z,55.80
2022-08-05T15:48:53.123Z,54.50
2022-08-05T15:52:04.491Z,53.80
2022-08-05T15:54:17.580Z,53.50
2022-08-05T15:56:46.791Z,53.00
2022-08-05T15:59:21.861Z,53.00
2022-08-05T16:01:52.648Z,53.30
2022-08-05T16:04:25.723Z,52.60
2022-08-05T16:06:54.060Z,53.30
2022-08-05T16:09:23.857Z,53.10
2022-08-05T16:11:54.268Z,52.90
2022-08-05T16:14:22.541Z,52.70
2022-08-05T16:16:50.999Z,52.80
2022-08-05T16:20:02.758Z,52.00
2022-08-05T16:22:10.485Z,51.70
2022-08-05T16:24:41.597Z,51.50
2022-08-05T16:27:46.753Z,51.10
2022-08-05T16:30:23.082Z,51.00
2022-08-05T16:32:53.873Z,50.70
2022-08-05T16:35:27.798Z,50.10
2022-08-05T16:38:03.609Z,49.80
2022-08-05T16:40:47.689Z,49.50
2022-08-05T16:43:23.701Z,49.80
2022-08-05T16:46:06.452Z,49.70
2022-08-05T16:48:38.950Z,50.50
2022-08-05T16:51:10.060Z,50.40
2022-08-05T16:54:06.298Z,50.70
2022-08-05T16:56:29.122Z,51.20
2022-08-05T16:59:01.005Z,51.60
2022-08-05T17:01:54.783Z,51.60
2022-08-05T17:04:26.274Z,51.40
2022-08-05T17:06:55.384Z,51.60
2022-08-05T17:09:23.413Z,51.70
2022-08-05T17:11:54.764Z,52.50
2022-08-05T17:14:37.543Z,52.90
2022-08-05T17:17:09.315Z,53.10
2022-08-05T17:19:45.708Z,53.70
2022-08-05T17:22:25.079Z,54.10
2022-08-05T17:24:56.938Z,54.20
2022-08-05T17:27:27.167Z,55.20
2022-08-05T17:29:59.730Z,54.50
2022-08-05T17:32:30.346Z,55.00
2022-08-05T17:35:01.895Z,55.40
2022-08-05T17:37:41.683Z,55.40
2022-08-05T17:40:15.484Z,55.90
2022-08-05T17:42:51.295Z,56.00
2022-08-05T17:45:22.928Z,56.50
2022-08-05T17:47:55.046Z,56.40
2022-08-05T17:50:28.749Z,56.80
2022-08-05T17:52:59.896Z,56.90
2022-08-05T17:55:38.082Z,57.00
2022-08-05T17:58:13.635Z,57.10
2022-08-05T18:00:47.861Z,57.50
2022-08-05T18:06:12.045Z,57.70
2022-08-05T18:08:45.476Z,57.50
2022-08-05T18:11:24.026Z,58.00
2022-08-05T18:13:57.462Z,58.10
2022-08-05T18:16:29.110Z,58.10
2022-08-05T18:18:57.354Z,57.90
2022-08-05T18:21:26.050Z,58.00
2022-08-05T18:23:54.637Z,58.30
2022-08-05T18:26:27.500Z,58.30
2022-08-05T18:28:57.905Z,58.70
2022-08-05T18:31:32.932Z,58.30
2022-08-05T18:34:05.765Z,58.20
2022-08-05T18:36:36.062Z,58.40
2022-08-05T18:39:06.485Z,58.60
2022-08-05T18:41:55.543Z,58.80
2022-08-05T18:44:35.064Z,58.60
2022-08-05T18:47:15.245Z,58.70
2022-08-05T18:50:02.444Z,59.10
2022-08-05T18:52:35.883Z,59.10
2022-08-05T18:55:10.604Z,59.00
2022-08-05T18:57:42.973Z,59.10
2022-08-05T19:00:20.309Z,59.20
2022-08-05T19:02:48.857Z,59.10
2022-08-05T19:06:11.605Z,59.30
2022-08-05T19:08:13.583Z,59.70
2022-08-05T19:10:41.928Z,60.00
2022-08-05T19:13:12.250Z,60.50
2022-08-05T19:15:59.434Z,60.70
2022-08-05T19:18:31.497Z,60.90
2022-08-05T19:21:01.446Z,62.30
2022-08-05T19:24:05.608Z,64.20
2022-08-05T19:26:19.582Z,65.10
2022-08-05T19:28:47.390Z,66.20
2022-08-05T19:31:19.558Z,66.50
2022-08-05T19:33:56.272Z,66.90
2022-08-05T19:36:26.538Z,67.60
2022-08-05T19:38:54.996Z,67.90
2022-08-05T19:42:05.732Z,68.00
2022-08-05T19:44:17.060Z,68.50
2022-08-05T19:46:46.367Z,68.70
2022-08-05T19:49:17.107Z,68.90
2022-08-05T19:52:08.546Z,68.90
2022-08-05T19:54:35.618Z,69.10
2022-08-05T19:57:09.596Z,68.70
2022-08-05T19:59:54.799Z,69.40
2022-08-05T20:02:30.254Z,71.30
2022-08-05T20:04:59.871Z,72.10
2022-08-05T20:07:46.744Z,71.90
2022-08-05T20:10:17.040Z,72.00
2022-08-05T20:12:48.135Z,73.30
2022-08-05T20:15:47.809Z,75.30
2022-08-05T20:18:10.320Z,77.00
2022-08-05T20:20:55.100Z,76.70
2022-08-05T20:23:40.409Z,77.80
2022-08-05T20:26:15.344Z,78.70
2022-08-05T20:28:45.198Z,80.20
2022-08-05T20:31:13.397Z,81.30
2022-08-05T20:33:44.562Z,82.50
2022-08-05T20:36:14.185Z,83.10
2022-08-05T20:38:53.739Z,81.10
2022-08-05T20:41:27.051Z,82.80
2022-08-05T20:44:17.822Z,82.10
2022-08-05T20:46:47.677Z,84.20
2022-08-05T20:49:18.465Z,86.90
2022-08-05T20:51:53.379Z,87.00
2022-08-05T20:54:24.744Z,86.40
2022-08-05T20:56:52.648Z,86.00
2022-08-05T20:59:26.535Z,88.20
2022-08-05T21:01:57.972Z,85.00
2022-08-05T21:04:27.062Z,86.90
2022-08-05T21:06:55.824Z,86.90
2022-08-05T21:09:25.108Z,85.00
2022-08-05T21:12:08.943Z,85.80
2022-08-05T21:14:39.684Z,85.10
2022-08-05T21:17:07.592Z,86.80
2022-08-05T21:19:47.466Z,86.10
2022-08-05T21:22:23.538Z,89.10
2022-08-05T21:24:54.892Z,88.40
2022-08-05T21:27:25.307Z,88.90
2022-08-05T21:29:56.386Z,83.70
2022-08-05T21:32:27.205Z,82.80
2022-08-05T21:35:06.923Z,83.60
2022-08-05T21:37:47.294Z,81.80
2022-08-05T21:40:23.380Z,83.90
2022-08-05T21:42:51.997Z,82.10
2022-08-05T21:45:26.526Z,82.20
2022-08-05T21:48:08.600Z,83.60
2022-08-05T21:50:37.377Z,86.10
2022-08-05T21:53:16.178Z,86.50
2022-08-05T21:56:05.780Z,82.90
2022-08-05T21:58:34.823Z,81.90
2022-08-05T22:01:05.526Z,83.50
2022-08-05T22:03:51.941Z,84.90
2022-08-05T22:06:22.194Z,82.70
2022-08-05T22:08:51.627Z,84.20
2022-08-05T22:11:35.145Z,83.70
2022-08-05T22:14:34.068Z,83.20
2022-08-05T22:16:56.807Z,83.90
2022-08-05T22:20:00.502Z,84.80
2022-08-05T22:22:15.484Z,82.60
2022-08-05T22:25:01.757Z,82.00
2022-08-05T22:28:04.979Z,81.80
2022-08-05T22:30:35.434Z,81.60
2022-08-05T22:33:04.225Z,81.20
2022-08-05T22:35:49.286Z,81.10
2022-08-05T22:38:19.650Z,82.20
2022-08-05T22:40:49.342Z,83.10
2022-08-05T22:43:36.544Z,81.50
2022-08-05T22:46:23.248Z,81.90
2022-08-05T22:48:52.550Z,82.90
2022-08-05T22:51:22.845Z,83.20
2022-08-05T22:53:54.916Z,84.00
2022-08-05T22:56:30.397Z,84.70
2022-08-05T22:59:04.008Z,85.70
2022-08-05T23:02:04.710Z,86.50
2022-08-05T23:04:34.175Z,85.90
2022-08-05T23:07:02.325Z,85.20
2022-08-05T23:09:57.806Z,85.20
2022-08-05T23:12:20.260Z,85.20
2022-08-05T23:14:52.998Z,84.60
2022-08-05T23:17:34.569Z,84.30
2022-08-05T23:20:16.771Z,84.90
2022-08-05T23:22:47.691Z,86.00
2022-08-05T23:25:52.003Z,84.60
2022-08-05T23:28:06.850Z,86.00
2022-08-05T23:30:40.404Z,86.20
2022-08-05T23:33:16.477Z,86.90
2022-08-05T23:35:55.154Z,87.40
2022-08-05T23:38:25.793Z,86.90
2022-08-05T23:40:53.678Z,87.20
2022-08-05T23:43:25.408Z,86.70
2022-08-05T23:46:20.567Z,86.50
2022-08-05T23:48:59.750Z,85.50
2022-08-05T23:51:52.543Z,86.40
2022-08-05T23:54:25.197Z,86.30
2022-08-05T23:57:03.178Z,85.10
